sensor_id;sensor_type;location;lat;lon;timestamp;pressure;altitude;pressure_sealevel;temperature;humidity
69318;BME280;56457;52.190;4.440;2023-03-11T00:00:36;100827.53;;;2.97;87.29
69318;BME280;56457;52.190;4.440;2023-03-11T00:01:37;100806.66;;;2.90;89.59
69318;BME280;56457;52.190;4.440;2023-03-11T00:02:39;100819.56;;;2.87;89.54
69318;BME280;56457;52.190;4.440;2023-03-11T00:03:40;100814.44;;;2.91;88.88
69318;BME280;56457;52.190;4.440;2023-03-11T00:04:40;100817.84;;;2.89;89.00
69318;BME280;56457;52.190;4.440;2023-03-11T00:05:41;100822.94;;;2.84;90.78
69318;BME280;56457;52.190;4.440;2023-03-11T00:06:42;100813.44;;;2.85;91.98
69318;BME280;56457;52.190;4.440;2023-03-11T00:07:42;100820.31;;;2.83;93.41
69318;BME280;56457;52.190;4.440;2023-03-11T00:08:43;100818.56;;;2.82;95.63
69318;BME280;56457;52.190;4.440;2023-03-11T00:09:43;100815.22;;;2.86;95.80
69318;BME280;56457;52.190;4.440;2023-03-11T00:10:44;100821.28;;;2.88;96.68
69318;BME280;56457;52.190;4.440;2023-03-11T00:11:44;100813.34;;;2.80;97.81
69318;BME280;56457;52.190;4.440;2023-03-11T00:12:45;100821.13;;;2.80;97.92
69318;BME280;56457;52.190;4.440;2023-03-11T00:13:45;100821.03;;;2.77;98.76
69318;BME280;56457;52.190;4.440;2023-03-11T00:14:45;100818.47;;;2.79;96.05
69318;BME280;56457;52.190;4.440;2023-03-11T00:15:47;100829.81;;;2.82;95.81
69318;BME280;56457;52.190;4.440;2023-03-11T00:16:48;100818.41;;;2.76;97.08
69318;BME280;56457;52.190;4.440;2023-03-11T00:17:48;100835.72;;;2.77;97.05
69318;BME280;56457;52.190;4.440;2023-03-11T00:18:51;100827.03;;;2.75;97.17
69318;BME280;56457;52.190;4.440;2023-03-11T00:19:52;100836.53;;;2.74;97.50
69318;BME280;56457;52.190;4.440;2023-03-11T00:20:53;100832.16;;;2.73;97.11
69318;BME280;56457;52.190;4.440;2023-03-11T00:21:54;100833.09;;;2.75;97.29
69318;BME280;56457;52.190;4.440;2023-03-11T00:22:54;100839.19;;;2.79;96.73
69318;BME280;56457;52.190;4.440;2023-03-11T00:23:54;100837.41;;;2.75;98.68
69318;BME280;56457;52.190;4.440;2023-03-11T00:24:57;100845.09;;;2.73;98.92
69318;BME280;56457;52.190;4.440;2023-03-11T00:25:57;100840.75;;;2.70;100.00
69318;BME280;56457;52.190;4.440;2023-03-11T00:27:00;100844.19;;;2.69;100.00
69318;BME280;56457;52.190;4.440;2023-03-11T00:28:00;100849.56;;;2.79;100.00
69318;BME280;56457;52.190;4.440;2023-03-11T00:29:01;100853.00;;;2.78;100.00
69318;BME280;56457;52.190;4.440;2023-03-11T00:30:01;100855.75;;;2.85;100.00
69318;BME280;56457;52.190;4.440;2023-03-11T00:31:02;100856.81;;;2.92;99.01
69318;BME280;56457;52.190;4.440;2023-03-11T00:32:02;100858.47;;;2.90;98.54
69318;BME280;56457;52.190;4.440;2023-03-11T00:33:03;100857.72;;;2.94;96.48
69318;BME280;56457;52.190;4.440;2023-03-11T00:34:03;100873.19;;;2.91;98.40
69318;BME280;56457;52.190;4.440;2023-03-11T00:35:04;100857.00;;;3.01;97.85
69318;BME280;56457;52.190;4.440;2023-03-11T00:36:04;100859.47;;;2.95;98.96
69318;BME280;56457;52.190;4.440;2023-03-11T00:37:06;100865.38;;;2.89;100.00
69318;BME280;56457;52.190;4.440;2023-03-11T00:38:07;100858.47;;;2.90;100.00
69318;BME280;56457;52.190;4.440;2023-03-11T00:39:08;100865.25;;;2.85;100.00
69318;BME280;56457;52.190;4.440;2023-03-11T00:40:11;100867.75;;;2.80;100.00
69318;BME280;56457;52.190;4.440;2023-03-11T00:41:12;100859.13;;;2.80;100.00
69318;BME280;56457;52.190;4.440;2023-03-11T00:42:12;100866.94;;;2.83;100.00
69318;BME280;56457;52.190;4.440;2023-03-11T00:43:13;100865.19;;;2.82;100.00
69318;BME280;56457;52.190;4.440;2023-03-11T00:44:13;100869.34;;;2.74;100.00
69318;BME280;56457;52.190;4.440;2023-03-11T00:45:14;100866.81;;;2.77;100.00
69318;BME280;56457;52.190;4.440;2023-03-11T00:46:14;100877.03;;;2.72;100.00
69318;BME280;56457;52.190;4.440;2023-03-11T00:47:14;100880.31;;;2.65;100.00
69318;BME280;56457;52.190;4.440;2023-03-11T00:48:15;100881.16;;;2.64;100.00
69318;BME280;56457;52.190;4.440;2023-03-11T00:49:15;100881.09;;;2.61;100.00
69318;BME280;56457;52.190;4.440;2023-03-11T00:50:19;100876.16;;;2.72;100.00
69318;BME280;56457;52.190;4.440;2023-03-11T00:51:20;100871.84;;;2.72;100.00
69318;BME280;56457;52.190;4.440;2023-03-11T00:52:20;100877.91;;;2.73;100.00
69318;BME280;56457;52.190;4.440;2023-03-11T00:53:21;100866.63;;;2.69;100.00
69318;BME280;56457;52.190;4.440;2023-03-11T00:54:21;100874.28;;;2.64;100.00
69318;BME280;56457;52.190;4.440;2023-03-11T00:55:23;100871.66;;;2.63;100.00
69318;BME280;56457;52.190;4.440;2023-03-11T00:56:23;100871.00;;;2.72;100.00
69318;BME280;56457;52.190;4.440;2023-03-11T00:57:24;100879.56;;;2.69;100.00
69318;BME280;56457;52.190;4.440;2023-03-11T00:58:25;100866.50;;;2.64;100.00
69318;BME280;56457;52.190;4.440;2023-03-11T00:59:27;100869.78;;;2.57;100.00
69318;BME280;56457;52.190;4.440;2023-03-11T01:00:28;100873.22;;;2.56;100.00
69318;BME280;56457;52.190;4.440;2023-03-11T01:01:28;100874.00;;;2.54;100.00
69318;BME280;56457;52.190;4.440;2023-03-11T01:02:28;100876.72;;;2.58;100.00
69318;BME280;56457;52.190;4.440;2023-03-11T01:03:29;100880.19;;;2.60;100.00
69318;BME280;56457;52.190;4.440;2023-03-11T01:04:29;100881.13;;;2.62;100.00
69318;BME280;56457;52.190;4.440;2023-03-11T01:05:30;100876.69;;;2.57;100.00
69318;BME280;56457;52.190;4.440;2023-03-11T01:06:31;100882.88;;;2.63;100.00
69318;BME280;56457;52.190;4.440;2023-03-11T01:07:31;100894.06;;;2.61;100.00
69318;BME280;56457;52.190;4.440;2023-03-11T01:08:32;100886.28;;;2.61;100.00
69318;BME280;56457;52.190;4.440;2023-03-11T01:09:33;100881.00;;;2.58;100.00
69318;BME280;56457;52.190;4.440;2023-03-11T01:10:33;100896.66;;;2.61;98.56
69318;BME280;56457;52.190;4.440;2023-03-11T01:11:34;100890.66;;;2.63;99.19
69318;BME280;56457;52.190;4.440;2023-03-11T01:12:35;100889.97;;;2.70;98.07
69318;BME280;56457;52.190;4.440;2023-03-11T01:13:35;100891.59;;;2.67;98.76
69318;BME280;56457;52.190;4.440;2023-03-11T01:14:36;100883.19;;;2.76;96.68
69318;BME280;56457;52.190;4.440;2023-03-11T01:15:36;100891.13;;;2.82;97.02
69318;BME280;56457;52.190;4.440;2023-03-11T01:16:36;100895.41;;;2.81;97.29
69318;BME280;56457;52.190;4.440;2023-03-11T01:17:36;100885.78;;;2.76;98.63
69318;BME280;56457;52.190;4.440;2023-03-11T01:18:37;100892.56;;;2.70;99.92
69318;BME280;56457;52.190;4.440;2023-03-11T01:19:37;100885.53;;;2.66;99.88
69318;BME280;56457;52.190;4.440;2023-03-11T01:20:37;100896.56;;;2.58;100.00
69318;BME280;56457;52.190;4.440;2023-03-11T01:21:38;100888.66;;;2.53;100.00
69318;BME280;56457;52.190;4.440;2023-03-11T01:22:38;100905.03;;;2.52;100.00
69318;BME280;56457;52.190;4.440;2023-03-11T01:23:39;100894.56;;;2.48;100.00
69318;BME280;56457;52.190;4.440;2023-03-11T01:24:39;100894.53;;;2.46;100.00
69318;BME280;56457;52.190;4.440;2023-03-11T01:25:39;100891.03;;;2.44;100.00
69318;BME280;56457;52.190;4.440;2023-03-11T01:26:40;100893.78;;;2.50;100.00
69318;BME280;56457;52.190;4.440;2023-03-11T01:27:40;100894.63;;;2.49;100.00
69318;BME280;56457;52.190;4.440;2023-03-11T01:28:41;100891.09;;;2.47;100.00
69318;BME280;56457;52.190;4.440;2023-03-11T01:29:41;100893.69;;;2.47;100.00
69318;BME280;56457;52.190;4.440;2023-03-11T01:30:42;100897.44;;;2.58;100.00
69318;BME280;56457;52.190;4.440;2023-03-11T01:31:42;100897.72;;;2.69;100.00
69318;BME280;56457;52.190;4.440;2023-03-11T01:32:43;100883.09;;;2.73;99.42
69318;BME280;56457;52.190;4.440;2023-03-11T01:33:43;100891.69;;;2.70;100.00
69318;BME280;56457;52.190;4.440;2023-03-11T01:34:43;100896.75;;;2.65;100.00
69318;BME280;56457;52.190;4.440;2023-03-11T01:35:44;100900.03;;;2.60;100.00
69318;BME280;56457;52.190;4.440;2023-03-11T01:36:45;100899.28;;;2.62;100.00
69318;BME280;56457;52.190;4.440;2023-03-11T01:37:45;100896.72;;;2.64;100.00
69318;BME280;56457;52.190;4.440;2023-03-11T01:38:46;100891.59;;;2.67;100.00
69318;BME280;56457;52.190;4.440;2023-03-11T01:39:46;100884.75;;;2.69;100.00
69318;BME280;56457;52.190;4.440;2023-03-11T01:40:47;100889.25;;;2.76;100.00
69318;BME280;56457;52.190;4.440;2023-03-11T01:41:48;100884.25;;;2.84;100.00
69318;BME280;56457;52.190;4.440;2023-03-11T01:42:48;100888.50;;;2.80;100.00
69318;BME280;56457;52.190;4.440;2023-03-11T01:43:50;100890.09;;;2.75;100.00
69318;BME280;56457;52.190;4.440;2023-03-11T01:44:53;100903.06;;;2.77;100.00
69318;BME280;56457;52.190;4.440;2023-03-11T01:47:58;100897.00;;;2.75;100.00
69318;BME280;56457;52.190;4.440;2023-03-11T01:49:00;100898.72;;;2.76;100.00
69318;BME280;56457;52.190;4.440;2023-03-11T01:50:01;100903.00;;;2.74;100.00
69318;BME280;56457;52.190;4.440;2023-03-11T01:51:02;100901.28;;;2.74;100.00
69318;BME280;56457;52.190;4.440;2023-03-11T01:52:04;100903.81;;;2.73;100.00
69318;BME280;56457;52.190;4.440;2023-03-11T01:53:06;100902.88;;;2.69;100.00
69318;BME280;56457;52.190;4.440;2023-03-11T01:55:16;100903.94;;;2.77;100.00
69318;BME280;56457;52.190;4.440;2023-03-11T01:56:17;100907.28;;;2.73;100.00
69318;BME280;56457;52.190;4.440;2023-03-11T01:57:18;100915.91;;;2.72;100.00
69318;BME280;56457;52.190;4.440;2023-03-11T01:58:20;100906.34;;;2.69;100.00
69318;BME280;56457;52.190;4.440;2023-03-11T01:59:23;100912.38;;;2.68;100.00
69318;BME280;56457;52.190;4.440;2023-03-11T02:00:25;100913.06;;;2.61;100.00
69318;BME280;56457;52.190;4.440;2023-03-11T02:01:25;100919.06;;;2.60;100.00
69318;BME280;56457;52.190;4.440;2023-03-11T02:02:27;100912.19;;;2.61;100.00
69318;BME280;56457;52.190;4.440;2023-03-11T02:03:31;100913.00;;;2.60;100.00
69318;BME280;56457;52.190;4.440;2023-03-11T02:04:32;100919.00;;;2.57;100.00
69318;BME280;56457;52.190;4.440;2023-03-11T02:05:32;100919.06;;;2.60;100.00
69318;BME280;56457;52.190;4.440;2023-03-11T02:06:33;100918.28;;;2.63;100.00
69318;BME280;56457;52.190;4.440;2023-03-11T02:07:34;100917.50;;;2.67;100.00
69318;BME280;56457;52.190;4.440;2023-03-11T02:08:34;100914.97;;;2.68;100.00
69318;BME280;56457;52.190;4.440;2023-03-11T02:09:34;100909.69;;;2.65;100.00
69318;BME280;56457;52.190;4.440;2023-03-11T02:10:36;100909.69;;;2.65;100.00
69318;BME280;56457;52.190;4.440;2023-03-11T02:11:37;100908.78;;;2.63;100.00
69318;BME280;56457;52.190;4.440;2023-03-11T02:12:37;100917.41;;;2.62;100.00
69318;BME280;56457;52.190;4.440;2023-03-11T02:13:37;100911.44;;;2.66;100.00
69318;BME280;56457;52.190;4.440;2023-03-11T02:14:39;100914.03;;;2.66;100.00
69318;BME280;56457;52.190;4.440;2023-03-11T02:15:40;100914.84;;;2.64;100.00
69318;BME280;56457;52.190;4.440;2023-03-11T02:16:41;100915.69;;;2.63;100.00
69318;BME280;56457;52.190;4.440;2023-03-11T02:17:41;100913.06;;;2.61;100.00
69318;BME280;56457;52.190;4.440;2023-03-11T02:18:42;100908.06;;;2.69;100.00
69318;BME280;56457;52.190;4.440;2023-03-11T02:21:02;100910.16;;;2.84;100.00
69318;BME280;56457;52.190;4.440;2023-03-11T02:22:04;100910.25;;;2.87;100.00
69318;BME280;56457;52.190;4.440;2023-03-11T02:23:05;100909.31;;;2.85;100.00
69318;BME280;56457;52.190;4.440;2023-03-11T02:24:16;100907.56;;;2.84;100.00
69318;BME280;56457;52.190;4.440;2023-03-11T02:26:24;100906.56;;;2.79;100.00
69318;BME280;56457;52.190;4.440;2023-03-11T02:27:30;100908.41;;;2.83;100.00
69318;BME280;56457;52.190;4.440;2023-03-11T02:28:32;100904.13;;;2.85;100.00
69318;BME280;56457;52.190;4.440;2023-03-11T02:29:34;100907.59;;;2.85;100.00
69318;BME280;56457;52.190;4.440;2023-03-11T02:30:35;100908.34;;;2.80;100.00
69318;BME280;56457;52.190;4.440;2023-03-11T02:31:36;100902.16;;;2.75;100.00
69318;BME280;56457;52.190;4.440;2023-03-11T02:32:37;100908.13;;;2.72;100.00
69318;BME280;56457;52.190;4.440;2023-03-11T02:33:37;100918.56;;;2.74;100.00
69318;BME280;56457;52.190;4.440;2023-03-11T02:34:38;100915.03;;;2.72;100.00
69318;BME280;56457;52.190;4.440;2023-03-11T02:35:38;100907.19;;;2.68;100.00
69318;BME280;56457;52.190;4.440;2023-03-11T02:36:40;100908.91;;;2.68;100.00
69318;BME280;56457;52.190;4.440;2023-03-11T02:37:44;100915.88;;;2.70;100.00
69318;BME280;56457;52.190;4.440;2023-03-11T02:38:45;100915.91;;;2.72;100.00
69318;BME280;56457;52.190;4.440;2023-03-11T02:39:46;100909.84;;;2.72;100.00
69318;BME280;56457;52.190;4.440;2023-03-11T02:41:52;100914.00;;;2.65;100.00
69318;BME280;56457;52.190;4.440;2023-03-11T02:42:53;100904.63;;;2.70;100.00
69318;BME280;56457;52.190;4.440;2023-03-11T02:43:54;100904.06;;;2.82;100.00
69318;BME280;56457;52.190;4.440;2023-03-11T02:45:04;100911.03;;;2.84;100.00
69318;BME280;56457;52.190;4.440;2023-03-11T02:46:07;100910.84;;;2.77;100.00
69318;BME280;56457;52.190;4.440;2023-03-11T02:47:09;100908.09;;;2.70;100.00
69318;BME280;56457;52.190;4.440;2023-03-11T02:48:10;100913.00;;;2.60;100.00
69318;BME280;56457;52.190;4.440;2023-03-11T02:49:11;100925.16;;;2.61;100.00
69318;BME280;56457;52.190;4.440;2023-03-11T02:50:12;100920.94;;;2.66;100.00
69318;BME280;56457;52.190;4.440;2023-03-11T02:51:14;100921.06;;;2.70;100.00
69318;BME280;56457;52.190;4.440;2023-03-11T02:52:14;100913.28;;;2.70;100.00
69318;BME280;56457;52.190;4.440;2023-03-11T02:53:16;100912.31;;;2.67;100.00
69318;BME280;56457;52.190;4.440;2023-03-11T02:54:16;100921.00;;;2.67;100.00
69318;BME280;56457;52.190;4.440;2023-03-11T02:55:17;100925.25;;;2.65;100.00
69318;BME280;56457;52.190;4.440;2023-03-11T02:56:19;100917.50;;;2.67;100.00
69318;BME280;56457;52.190;4.440;2023-03-11T02:57:19;100921.75;;;2.63;100.00
69318;BME280;56457;52.190;4.440;2023-03-11T02:58:19;100926.03;;;2.63;100.00
69318;BME280;56457;52.190;4.440;2023-03-11T02:59:20;100929.50;;;2.63;100.00
69318;BME280;56457;52.190;4.440;2023-03-11T03:00:20;100928.66;;;2.64;100.00
69318;BME280;56457;52.190;4.440;2023-03-11T03:01:20;100925.22;;;2.64;100.00
69318;BME280;56457;52.190;4.440;2023-03-11T03:02:21;100921.03;;;2.69;100.00
69318;BME280;56457;52.190;4.440;2023-03-11T03:03:21;100926.16;;;2.67;100.00
69318;BME280;56457;52.190;4.440;2023-03-11T03:04:22;100931.34;;;2.67;100.00
69318;BME280;56457;52.190;4.440;2023-03-11T03:05:22;100935.59;;;2.65;100.00
69318;BME280;56457;52.190;4.440;2023-03-11T03:06:22;100926.88;;;2.62;100.00
69318;BME280;56457;52.190;4.440;2023-03-11T03:07:24;100933.94;;;2.67;100.00
69318;BME280;56457;52.190;4.440;2023-03-11T03:08:24;100933.88;;;2.66;100.00
69318;BME280;56457;52.190;4.440;2023-03-11T03:09:24;100929.47;;;2.62;100.00
69318;BME280;56457;52.190;4.440;2023-03-11T03:10:24;100933.81;;;2.63;100.00
69318;BME280;56457;52.190;4.440;2023-03-11T03:11:25;100937.41;;;2.68;100.00
69318;BME280;56457;52.190;4.440;2023-03-11T03:12:25;100937.31;;;2.65;100.00
69318;BME280;56457;52.190;4.440;2023-03-11T03:13:26;100938.00;;;2.58;100.00
69318;BME280;56457;52.190;4.440;2023-03-11T03:14:26;100936.25;;;2.57;100.00
69318;BME280;56457;52.190;4.440;2023-03-11T03:15:26;100937.94;;;2.55;100.00
69318;BME280;56457;52.190;4.440;2023-03-11T03:16:27;100936.13;;;2.52;100.00
69318;BME280;56457;52.190;4.440;2023-03-11T03:17:27;100940.44;;;2.52;100.00
69318;BME280;56457;52.190;4.440;2023-03-11T03:18:27;100937.84;;;2.52;100.00
69318;BME280;56457;52.190;4.440;2023-03-11T03:19:28;100944.94;;;2.59;100.00
69318;BME280;56457;52.190;4.440;2023-03-11T03:20:28;100941.44;;;2.57;100.00
69318;BME280;56457;52.190;4.440;2023-03-11T03:21:28;100946.59;;;2.57;100.00
69318;BME280;56457;52.190;4.440;2023-03-11T03:22:29;100947.38;;;2.54;100.00
69318;BME280;56457;52.190;4.440;2023-03-11T03:23:29;100951.69;;;2.54;100.00
69318;BME280;56457;52.190;4.440;2023-03-11T03:24:34;100949.16;;;2.55;100.00
69318;BME280;56457;52.190;4.440;2023-03-11T03:25:34;100947.47;;;2.57;100.00
69318;BME280;56457;52.190;4.440;2023-03-11T03:26:35;100947.81;;;2.69;100.00
69318;BME280;56457;52.190;4.440;2023-03-11T03:27:35;100959.06;;;2.72;100.00
69318;BME280;56457;52.190;4.440;2023-03-11T03:28:35;100957.91;;;2.60;100.00
69318;BME280;56457;52.190;4.440;2023-03-11T03:29:36;100956.06;;;2.55;100.00
69318;BME280;56457;52.190;4.440;2023-03-11T03:30:36;100949.94;;;2.53;100.00
69318;BME280;56457;52.190;4.440;2023-03-11T03:31:37;100957.66;;;2.50;100.00
69318;BME280;56457;52.190;4.440;2023-03-11T03:32:37;100957.59;;;2.48;100.00
69318;BME280;56457;52.190;4.440;2023-03-11T03:33:38;100958.53;;;2.50;100.00
69318;BME280;56457;52.190;4.440;2023-03-11T03:34:38;100956.00;;;2.53;100.00
69318;BME280;56457;52.190;4.440;2023-03-11T03:35:41;100959.78;;;2.66;100.00
69318;BME280;56457;52.190;4.440;2023-03-11T03:36:42;100965.69;;;2.60;100.00
69318;BME280;56457;52.190;4.440;2023-03-11T03:37:42;100967.41;;;2.60;100.00
69318;BME280;56457;52.190;4.440;2023-03-11T03:38:43;100970.97;;;2.63;100.00
69318;BME280;56457;52.190;4.440;2023-03-11T03:39:43;100976.03;;;2.60;100.00
69318;BME280;56457;52.190;4.440;2023-03-11T03:40:46;100970.75;;;2.56;100.00
69318;BME280;56457;52.190;4.440;2023-03-11T03:41:47;100975.78;;;2.50;100.00
69318;BME280;56457;52.190;4.440;2023-03-11T03:42:47;100978.31;;;2.48;100.00
69318;BME280;56457;52.190;4.440;2023-03-11T03:43:48;100981.72;;;2.47;100.00
69318;BME280;56457;52.190;4.440;2023-03-11T03:44:51;100977.44;;;2.48;100.00
69318;BME280;56457;52.190;4.440;2023-03-11T03:45:58;100981.91;;;2.53;100.00
69318;BME280;56457;52.190;4.440;2023-03-11T03:46:59;100981.03;;;2.53;100.00
69318;BME280;56457;52.190;4.440;2023-03-11T03:47:59;100981.91;;;2.53;100.00
69318;BME280;56457;52.190;4.440;2023-03-11T03:48:59;100984.50;;;2.53;100.00
69318;BME280;56457;52.190;4.440;2023-03-11T03:50:01;100984.41;;;2.50;100.00
69318;BME280;56457;52.190;4.440;2023-03-11T03:51:05;100985.19;;;2.48;100.00
69318;BME280;56457;52.190;4.440;2023-03-11T03:52:06;100989.50;;;2.47;100.00
69318;BME280;56457;52.190;4.440;2023-03-11T03:53:07;100982.56;;;2.46;100.00
69318;BME280;56457;52.190;4.440;2023-03-11T03:54:08;100983.47;;;2.48;100.00
69318;BME280;56457;52.190;4.440;2023-03-11T03:55:08;100988.78;;;2.53;100.00
69318;BME280;56457;52.190;4.440;2023-03-11T03:56:09;100990.38;;;2.48;100.00
69318;BME280;56457;52.190;4.440;2023-03-11T03:57:10;100986.84;;;2.44;100.00
69318;BME280;56457;52.190;4.440;2023-03-11T03:58:10;100985.13;;;2.45;100.00
69318;BME280;56457;52.190;4.440;2023-03-11T03:59:11;100986.81;;;2.42;100.00
69318;BME280;56457;52.190;4.440;2023-03-11T04:00:11;100989.47;;;2.46;100.00
69318;BME280;56457;52.190;4.440;2023-03-11T04:01:12;100991.22;;;2.47;100.00
69318;BME280;56457;52.190;4.440;2023-03-11T04:02:13;100985.16;;;2.46;100.00
69318;BME280;56457;52.190;4.440;2023-03-11T04:03:13;100986.84;;;2.44;100.00
69318;BME280;56457;52.190;4.440;2023-03-11T04:04:13;100992.09;;;2.47;100.00
69318;BME280;56457;52.190;4.440;2023-03-11T04:05:13;100985.16;;;2.46;100.00
69318;BME280;56457;52.190;4.440;2023-03-11T04:06:16;100992.09;;;2.47;100.00
69318;BME280;56457;52.190;4.440;2023-03-11T04:07:16;100994.69;;;2.47;100.00
69318;BME280;56457;52.190;4.440;2023-03-11T04:08:17;100991.19;;;2.45;100.00
69318;BME280;56457;52.190;4.440;2023-03-11T04:09:18;100995.53;;;2.46;100.00
69318;BME280;56457;52.190;4.440;2023-03-11T04:10:18;100992.09;;;2.47;100.00
69318;BME280;56457;52.190;4.440;2023-03-11T04:11:19;100997.28;;;2.47;100.00
69318;BME280;56457;52.190;4.440;2023-03-11T04:12:20;101002.38;;;2.44;100.00
69318;BME280;56457;52.190;4.440;2023-03-11T04:13:20;100991.09;;;2.42;100.00
69318;BME280;56457;52.190;4.440;2023-03-11T04:14:20;100997.16;;;2.42;100.00
69318;BME280;56457;52.190;4.440;2023-03-11T04:15:20;100992.78;;;2.41;100.00
69318;BME280;56457;52.190;4.440;2023-03-11T04:16:21;100991.84;;;2.38;100.00
69318;BME280;56457;52.190;4.440;2023-03-11T04:17:22;100991.84;;;2.38;100.00
69318;BME280;56457;52.190;4.440;2023-03-11T04:18:23;100994.34;;;2.35;100.00
69318;BME280;56457;52.190;4.440;2023-03-11T04:19:23;100991.75;;;2.35;100.00
69318;BME280;56457;52.190;4.440;2023-03-11T04:20:24;100992.59;;;2.34;100.00
69318;BME280;56457;52.190;4.440;2023-03-11T04:21:24;100992.59;;;2.34;100.00
69318;BME280;56457;52.190;4.440;2023-03-11T04:22:24;100994.28;;;2.32;100.00
69318;BME280;56457;52.190;4.440;2023-03-11T04:23:25;100992.44;;;2.29;100.00
69318;BME280;56457;52.190;4.440;2023-03-11T04:24:25;100993.28;;;2.28;100.00
69318;BME280;56457;52.190;4.440;2023-03-11T04:25:25;100992.41;;;2.28;100.00
69318;BME280;56457;52.190;4.440;2023-03-11T04:26:26;100996.84;;;2.32;100.00
69318;BME280;56457;52.190;4.440;2023-03-11T04:27:27;100990.03;;;2.35;100.00
69318;BME280;56457;52.190;4.440;2023-03-11T04:28:27;100988.97;;;2.27;100.00
69318;BME280;56457;52.190;4.440;2023-03-11T04:29:28;100994.97;;;2.26;100.00
69318;BME280;56457;52.190;4.440;2023-03-11T04:30:28;100998.44;;;2.27;100.00
69318;BME280;56457;52.190;4.440;2023-03-11T04:31:28;101008.88;;;2.30;100.00
69318;BME280;56457;52.190;4.440;2023-03-11T04:32:29;101003.84;;;2.36;100.00
69318;BME280;56457;52.190;4.440;2023-03-11T04:33:29;100997.72;;;2.32;100.00
69318;BME280;56457;52.190;4.440;2023-03-11T04:34:29;100999.41;;;2.30;100.00
69318;BME280;56457;52.190;4.440;2023-03-11T04:35:29;101004.50;;;2.27;100.00
69318;BME280;56457;52.190;4.440;2023-03-11T04:36:30;101006.19;;;2.27;100.00
69318;BME280;56457;52.190;4.440;2023-03-11T04:37:30;101007.00;;;2.24;100.00
69318;BME280;56457;52.190;4.440;2023-03-11T04:38:30;101005.19;;;2.22;100.00
69318;BME280;56457;52.190;4.440;2023-03-11T04:39:31;101003.44;;;2.21;100.00
69318;BME280;56457;52.190;4.440;2023-03-11T04:40:31;101001.75;;;2.23;100.00
69318;BME280;56457;52.190;4.440;2023-03-11T04:41:32;101001.72;;;2.21;100.00
69318;BME280;56457;52.190;4.440;2023-03-11T04:42:32;101005.19;;;2.22;100.00
69318;BME280;56457;52.190;4.440;2023-03-11T04:43:33;100999.94;;;2.19;100.00
69318;BME280;56457;52.190;4.440;2023-03-11T04:44:33;101001.69;;;2.20;100.00
69318;BME280;56457;52.190;4.440;2023-03-11T04:45:36;101004.31;;;2.21;100.00
69318;BME280;56457;52.190;4.440;2023-03-11T04:46:37;101005.16;;;2.20;100.00
69318;BME280;56457;52.190;4.440;2023-03-11T04:47:37;101006.91;;;2.21;100.00
69318;BME280;56457;52.190;4.440;2023-03-11T04:48:38;101006.88;;;2.20;100.00
69318;BME280;56457;52.190;4.440;2023-03-11T04:49:38;101010.28;;;2.19;100.00
69318;BME280;56457;52.190;4.440;2023-03-11T04:50:38;101007.75;;;2.20;100.00
69318;BME280;56457;52.190;4.440;2023-03-11T04:51:39;101012.88;;;2.19;100.00
69318;BME280;56457;52.190;4.440;2023-03-11T04:52:39;101002.44;;;2.15;100.00
69318;BME280;56457;52.190;4.440;2023-03-11T04:53:39;101001.56;;;2.15;100.00
69318;BME280;56457;52.190;4.440;2023-03-11T04:54:40;100999.69;;;2.11;100.00
69318;BME280;56457;52.190;4.440;2023-03-11T04:55:40;100998.88;;;2.12;100.00
69318;BME280;56457;52.190;4.440;2023-03-11T04:56:40;101004.16;;;2.16;100.00
69318;BME280;56457;52.190;4.440;2023-03-11T04:57:41;101005.03;;;2.17;100.00
69318;BME280;56457;52.190;4.440;2023-03-11T04:58:41;101008.53;;;2.18;100.00
69318;BME280;56457;52.190;4.440;2023-03-11T04:59:42;101010.19;;;2.15;100.00
69318;BME280;56457;52.190;4.440;2023-03-11T05:00:42;101012.75;;;2.14;100.00
69318;BME280;56457;52.190;4.440;2023-03-11T05:01:42;101017.03;;;2.13;100.00
69318;BME280;56457;52.190;4.440;2023-03-11T05:02:42;101013.53;;;2.11;100.00
69318;BME280;56457;52.190;4.440;2023-03-11T05:03:43;101009.06;;;2.06;100.00
69318;BME280;56457;52.190;4.440;2023-03-11T05:04:44;101019.41;;;2.06;100.00
69318;BME280;56457;52.190;4.440;2023-03-11T05:05:44;101013.38;;;2.05;100.00
69318;BME280;56457;52.190;4.440;2023-03-11T05:06:44;101025.47;;;2.06;100.00
69318;BME280;56457;52.190;4.440;2023-03-11T05:07:45;101014.97;;;2.02;100.00
69318;BME280;56457;52.190;4.440;2023-03-11T05:08:45;101020.00;;;1.97;100.00
69318;BME280;56457;52.190;4.440;2023-03-11T05:09:46;101017.38;;;1.96;100.00
69318;BME280;56457;52.190;4.440;2023-03-11T05:10:46;101013.91;;;1.95;100.00
69318;BME280;56457;52.190;4.440;2023-03-11T05:11:46;101017.41;;;1.97;100.00
69318;BME280;56457;52.190;4.440;2023-03-11T05:12:47;101016.31;;;1.89;100.00
69318;BME280;56457;52.190;4.440;2023-03-11T05:13:48;101015.44;;;1.88;100.00
69318;BME280;56457;52.190;4.440;2023-03-11T05:14:48;101022.38;;;1.89;100.00
69318;BME280;56457;52.190;4.440;2023-03-11T05:15:48;101019.78;;;1.89;100.00
69318;BME280;56457;52.190;4.440;2023-03-11T05:16:49;101029.22;;;1.87;100.00
69318;BME280;56457;52.190;4.440;2023-03-11T05:17:49;101023.06;;;1.84;100.00
69318;BME280;56457;52.190;4.440;2023-03-11T05:18:49;101029.91;;;1.82;100.00
69318;BME280;56457;52.190;4.440;2023-03-11T05:19:50;101026.44;;;1.81;100.00
69318;BME280;56457;52.190;4.440;2023-03-11T05:20:52;101026.38;;;1.80;100.00
69318;BME280;56457;52.190;4.440;2023-03-11T05:21:52;101027.28;;;1.80;100.00
69318;BME280;56457;52.190;4.440;2023-03-11T05:22:53;101028.91;;;1.78;100.00
69318;BME280;56457;52.190;4.440;2023-03-11T05:23:53;101029.75;;;1.77;100.00
69318;BME280;56457;52.190;4.440;2023-03-11T05:24:53;101029.78;;;1.79;100.00